Time;durP1;ratioP1;P1;durP2;ratioP2;P2;SDS_P1;SDS_P2;PMS_P1;PMS_P2;Temp;Humidity;BMP_temperature;BMP_pressure;BME280_temperature;BME280_humidity;BME280_pressure;Samples;Min_cycle;Max_cycle;Signal;HPM_P1;HPM_P2
2022/06/20 00:01:38;;;;;;;3.38;0.80;;;;;;;13.02;61.10;100368.13;4998726;28;20112;-47
2022/06/20 00:04:05;;;;;;;1.35;0.50;;;;;;;12.98;62.03;100372.47;4978896;28;20053;-43
2022/06/20 00:06:32;;;;;;;1.05;0.77;;;;;;;12.96;61.17;100378.56;4999586;28;20061;-46
2022/06/20 00:09:00;;;;;;;4.25;0.70;;;;;;;12.93;61.74;100376.84;5007395;28;20103;-44
2022/06/20 00:11:32;;;;;;;2.72;0.50;;;;;;;12.92;61.70;100382.94;5004634;28;20049;-46
2022/06/20 00:13:58;;;;;;;2.95;0.50;;;;;;;12.88;61.20;100385.56;4997992;28;20045;-43
2022/06/20 00:16:25;;;;;;;3.08;0.45;;;;;;;12.84;61.73;100385.56;5004595;28;20131;-46
2022/06/20 00:18:53;;;;;;;3.58;0.52;;;;;;;12.79;61.80;100382.16;5003801;28;20489;-45
2022/06/20 00:21:22;;;;;;;4.13;0.60;;;;;;;12.76;61.99;100382.16;5003940;28;20053;-46
2022/06/20 00:23:49;;;;;;;1.98;0.60;;;;;;;12.72;61.29;100388.25;4997573;28;20460;-47
2022/06/20 00:26:16;;;;;;;2.80;1.00;;;;;;;12.70;62.27;100388.28;5009101;28;20046;-44
2022/06/20 00:28:44;;;;;;;2.53;0.63;;;;;;;12.68;61.15;100389.16;5004736;28;20058;-48
2022/06/20 00:31:11;;;;;;;1.60;0.70;;;;;;;12.66;61.92;100385.72;5002480;28;20050;-43
2022/06/20 00:33:38;;;;;;;3.85;0.90;;;;;;;12.65;61.94;100378.78;5000369;28;20049;-48
2022/06/20 00:36:05;;;;;;;2.03;0.40;;;;;;;12.63;62.00;100376.19;4997713;28;20057;-43
2022/06/20 00:38:35;;;;;;;1.55;0.52;;;;;;;12.62;61.27;100378.78;5003743;28;20490;-42
2022/06/20 00:41:07;;;;;;;3.60;0.77;;;;;;;12.57;61.43;100371.88;5006171;28;20089;-46
2022/06/20 00:43:40;;;;;;;1.85;0.75;;;;;;;12.55;62.22;100367.56;5000963;28;20054;-46
2022/06/20 00:51:43;;;;;;;2.75;0.65;;;;;;;12.44;62.67;100380.63;5092257;27;20697;-41
2022/06/20 00:59:31;;;;;;;3.92;0.65;;;;;;;12.39;62.58;100387.59;5057356;28;20395;-47
2022/06/20 01:02:00;;;;;;;1.50;0.40;;;;;;;12.37;62.09;100389.31;5017479;28;20132;-45
2022/06/20 01:04:35;;;;;;;2.50;0.73;;;;;;;12.34;62.15;100391.03;5008571;28;20133;-43
2022/06/20 01:07:07;;;;;;;2.92;0.60;;;;;;;12.32;62.42;100398.00;5016760;28;20046;-43
2022/06/20 01:09:40;;;;;;;1.13;0.50;;;;;;;12.30;62.93;100399.72;5010945;28;20041;-47
2022/06/20 01:12:12;;;;;;;6.63;0.82;;;;;;;12.27;62.15;100397.16;5019748;28;20686;-41
2022/06/20 01:14:39;;;;;;;1.50;0.32;;;;;;;12.24;61.92;100394.56;5010095;28;20080;-45
2022/06/20 01:19:50;;;;;;;3.88;1.42;;;;;;;12.66;62.81;100390.91;5081203;27;20397;-43
2022/06/20 01:25:37;;;;;;;2.28;0.57;;;;;;;12.18;63.18;100389.41;5025335;28;20411;-45
2022/06/20 01:28:07;;;;;;;2.65;0.70;;;;;;;12.18;63.06;100399.78;5001418;28;20043;-46
2022/06/20 01:30:37;;;;;;;2.38;1.25;;;;;;;12.14;62.62;100406.72;5000737;28;20667;-43
2022/06/20 01:33:04;;;;;;;;;;;;;;;11.93;62.90;100410.22;4998296;28;20054;-49
2022/06/20 01:38:20;;;;;;;4.50;0.88;;;;;;;11.96;63.00;100400.69;5002657;28;20054;-45
2022/06/20 01:43:35;;;;;;;4.75;0.80;;;;;;;11.89;63.14;100403.31;4987617;28;20049;-42
2022/06/20 01:46:09;;;;;;;3.90;0.55;;;;;;;11.85;63.91;100402.44;5001776;28;20058;-44
2022/06/20 01:48:40;;;;;;;3.60;0.50;;;;;;;11.80;63.38;100394.69;4999168;28;20046;-44
2022/06/20 01:51:16;;;;;;;3.67;1.08;;;;;;;11.76;64.11;100400.72;5005806;28;20104;-42
2022/06/20 01:53:43;;;;;;;;;;;;;;;11.57;64.91;100405.09;5031491;28;20046;-43
2022/06/20 01:56:10;;;;;;;3.08;1.08;;;;;;;11.65;64.61;100410.28;4998353;28;19922;-44
2022/06/20 01:58:44;;;;;;;1.00;0.85;;;;;;;11.64;64.48;100405.94;5032058;28;20074;-47
2022/06/20 02:01:14;;;;;;;1.50;0.70;;;;;;;11.62;64.25;100410.28;5001094;28;20046;-44
2022/06/20 02:03:59;;;;;;;2.53;1.00;;;;;;;11.59;64.25;100410.28;4998629;28;20725;-45
2022/06/20 02:06:26;;;;;;;4.65;0.82;;;;;;;11.58;64.02;100409.41;5000222;28;20100;-45
2022/06/20 02:08:56;;;;;;;2.67;0.98;;;;;;;11.59;65.04;100415.47;5004067;28;20058;-47
2022/06/20 02:11:35;;;;;;;3.58;0.77;;;;;;;11.56;65.18;100406.81;5019059;28;20049;-46
2022/06/20 02:16:56;;;;;;;3.90;0.55;;;;;;;11.52;65.14;100405.09;5030133;27;20773;-46
2022/06/20 02:19:29;;;;;;;3.42;0.43;;;;;;;11.52;64.82;100404.25;5003201;28;20097;-48
2022/06/20 02:22:01;;;;;;;4.57;0.45;;;;;;;11.49;65.71;100415.50;5000132;28;20414;-46
2022/06/20 02:24:33;;;;;;;3.80;0.60;;;;;;;11.49;65.72;100415.50;5002867;28;20396;-47
2022/06/20 02:27:03;;;;;;;3.95;0.63;;;;;;;11.49;65.29;100420.69;4991672;28;20102;-46
2022/06/20 02:29:31;;;;;;;7.47;1.05;;;;;;;11.47;65.13;100435.38;5002482;28;20544;-47
2022/06/20 02:32:19;;;;;;;2.63;1.05;;;;;;;11.48;65.62;100434.50;5002575;28;20042;-43
2022/06/20 02:34:47;;;;;;;4.07;1.33;;;;;;;11.47;65.87;100426.69;5003716;28;20053;-45
2022/06/20 02:37:20;;;;;;;2.42;0.50;;;;;;;11.48;65.18;100439.69;5002882;28;20053;-50
2022/06/20 02:39:50;;;;;;;1.77;0.63;;;;;;;11.47;65.68;100437.94;5000247;28;20449;-43
2022/06/20 02:42:26;;;;;;;4.07;0.57;;;;;;;11.46;65.28;100441.41;5001241;28;20066;-43
2022/06/20 02:44:55;;;;;;;3.13;0.80;;;;;;;11.50;65.19;100448.34;5001722;28;20046;-46
2022/06/20 02:47:23;;;;;;;1.67;0.70;;;;;;;11.52;66.01;100448.34;4993326;28;20054;-43
2022/06/20 02:49:54;;;;;;;3.70;0.80;;;;;;;11.55;65.15;100456.97;4998541;28;20136;-47
2022/06/20 02:52:38;;;;;;;2.63;0.63;;;;;;;11.57;66.37;100444.00;5002562;28;20042;-43
2022/06/20 02:55:06;;;;;;;4.35;0.88;;;;;;;11.62;65.78;100451.78;4999687;28;20038;-47
2022/06/20 02:57:39;;;;;;;2.55;0.50;;;;;;;11.64;65.30;100457.81;4997051;28;20058;-47
2022/06/20 03:00:13;;;;;;;4.05;0.80;;;;;;;11.67;65.37;100466.50;5000686;28;20059;-44
2022/06/20 03:02:45;;;;;;;1.30;0.43;;;;;;;11.72;65.83;100468.22;4995157;28;20058;-47
2022/06/20 03:05:12;;;;;;;2.25;0.57;;;;;;;11.73;66.24;100470.81;5001464;28;20053;-45
2022/06/20 03:07:41;;;;;;;5.75;0.55;;;;;;;11.78;65.42;100469.06;5000331;28;20050;-44
2022/06/20 03:10:20;;;;;;;7.10;0.98;;;;;;;11.78;65.95;100479.44;4999834;28;20050;-44
2022/06/20 03:12:47;;;;;;;5.53;0.90;;;;;;;11.80;66.52;100477.72;4999419;28;20060;-45
2022/06/20 03:15:15;;;;;;;5.78;0.57;;;;;;;11.82;65.97;100477.69;5002554;28;20104;-45
2022/06/20 03:17:43;;;;;;;4.22;1.02;;;;;;;11.85;66.11;100487.25;5000082;28;20307;-45
2022/06/20 03:20:13;;;;;;;3.90;0.70;;;;;;;11.87;65.34;100493.28;4999892;28;20046;-47
2022/06/20 03:22:51;;;;;;;3.90;0.95;;;;;;;11.86;65.45;100496.75;4999835;28;20050;-47
2022/06/20 03:25:20;;;;;;;5.80;0.95;;;;;;;11.90;65.90;100509.72;4997596;28;20069;-46
2022/06/20 03:27:51;;;;;;;1.73;0.50;;;;;;;11.92;65.63;100501.94;4980541;28;20046;-46
2022/06/20 03:30:32;;;;;;;2.92;0.63;;;;;;;11.91;66.39;100513.19;4984610;28;20399;-45
2022/06/20 03:33:01;;;;;;;4.28;1.15;;;;;;;11.94;65.52;100510.59;4986942;28;20050;-43
2022/06/20 03:35:30;;;;;;;2.22;0.95;;;;;;;11.95;65.93;100526.16;4988724;28;20046;-45
2022/06/20 03:38:00;;;;;;;2.10;1.05;;;;;;;11.99;66.06;100526.16;4983521;28;20450;-47
2022/06/20 03:40:27;;;;;;;4.75;0.93;;;;;;;12.00;66.11;100531.34;4983420;28;20104;-42
2022/06/20 03:42:57;;;;;;;2.00;0.70;;;;;;;12.02;66.16;100534.81;4984949;28;20054;-47
2022/06/20 03:45:28;;;;;;;4.60;0.68;;;;;;;12.05;65.89;100537.41;4988907;28;20054;-46
2022/06/20 03:48:02;;;;;;;2.35;0.50;;;;;;;12.07;65.58;100530.53;4988039;28;20105;-46
2022/06/20 03:50:35;;;;;;;3.60;0.57;;;;;;;12.11;65.21;100533.09;4983800;28;20054;-47
2022/06/20 03:53:10;;;;;;;5.60;0.75;;;;;;;12.10;65.84;100533.97;4983501;28;20054;-44
2022/06/20 03:55:46;;;;;;;4.53;0.70;;;;;;;12.12;66.26;100533.09;4984007;28;20050;-46
2022/06/20 03:58:31;;;;;;;3.50;0.68;;;;;;;12.12;66.25;100534.84;4984674;28;20054;-43
2022/06/20 04:01:03;;;;;;;2.13;0.73;;;;;;;12.16;65.54;100541.75;4978413;28;20552;-44
2022/06/20 04:03:39;;;;;;;4.65;1.02;;;;;;;12.17;66.36;100538.28;4981704;28;20050;-46
2022/06/20 04:06:19;;;;;;;5.30;1.27;;;;;;;12.14;66.30;100527.91;4984246;28;20121;-49
2022/06/20 04:11:51;;;;;;;1.63;0.70;;;;;;;12.13;65.60;100532.22;5079048;27;20398;-47
2022/06/20 04:18:27;;;;;;;3.83;1.92;;;;;;;12.15;66.28;100547.78;5028298;27;20413;-45
2022/06/20 04:19:50;;;;;;;2.40;1.48;;;;;;;12.14;66.48;100541.75;5013932;28;20152;-44
2022/06/20 04:22:22;;;;;;;8.25;2.58;;;;;;;12.16;65.54;100540.00;5012285;28;20049;-45
2022/06/20 04:27:35;;;;;;;4.38;1.85;;;;;;;12.50;66.46;100539.06;5032202;28;20399;-46
2022/06/20 04:30:08;;;;;;;3.85;1.00;;;;;;;12.30;65.59;100539.13;5001913;28;20520;-43
2022/06/20 04:32:51;;;;;;;4.68;1.15;;;;;;;12.24;66.05;100537.41;4991870;28;20433;-47
2022/06/20 04:35:24;;;;;;;4.60;0.82;;;;;;;12.26;66.64;100538.25;4999039;28;20061;-44
2022/06/20 04:37:57;;;;;;;7.47;1.40;;;;;;;12.26;67.03;100548.66;5003846;28;20056;-47
2022/06/20 04:40:51;;;;;;;5.30;1.48;;;;;;;12.25;65.55;100557.31;5001468;28;20057;-46
2022/06/20 04:43:22;;;;;;;;;;;;;;;12.12;66.38;100547.81;4999650;28;20058;-43
2022/06/20 04:45:58;;;;;;;3.83;1.05;;;;;;;12.21;65.66;100556.47;5003061;28;19925;-44
2022/06/20 04:48:26;;;;;;;5.60;1.20;;;;;;;12.25;65.71;100554.72;4999768;28;20109;-46
2022/06/20 04:50:56;;;;;;;5.13;1.30;;;;;;;12.27;65.73;100550.41;5002272;28;20558;-46
2022/06/20 04:53:27;;;;;;;2.38;0.80;;;;;;;12.26;66.60;100548.66;4975640;28;20054;-46
2022/06/20 04:55:59;;;;;;;3.08;1.33;;;;;;;12.25;66.44;100546.91;4996994;28;20442;-46
2022/06/20 04:58:30;;;;;;;5.32;1.23;;;;;;;12.26;66.03;100553.84;4999233;28;20054;-47
2022/06/20 05:00:57;;;;;;;3.33;1.10;;;;;;;12.30;66.07;100555.56;4999719;28;20108;-46
2022/06/20 05:03:27;;;;;;;4.88;1.30;;;;;;;12.30;66.72;100552.97;4997590;28;20081;-44
2022/06/20 05:05:57;;;;;;;2.80;1.40;;;;;;;12.31;66.20;100551.25;5004854;28;20065;-45
2022/06/20 05:08:29;;;;;;;6.38;1.15;;;;;;;12.27;66.88;100553.00;5002885;28;20066;-47
2022/06/20 05:13:42;;;;;;;6.03;1.33;;;;;;;12.29;67.03;100547.81;5070139;27;20415;-43
2022/06/20 05:16:16;;;;;;;9.85;1.65;;;;;;;12.29;65.89;100543.44;5048139;28;20053;-45
2022/06/20 05:18:48;;;;;;;6.43;1.13;;;;;;;12.31;66.25;100554.72;5047219;28;20493;-45
2022/06/20 05:21:21;;;;;;;2.58;0.93;;;;;;;12.31;66.55;100557.31;5066132;28;20052;-45
2022/06/20 05:23:52;;;;;;;5.75;1.30;;;;;;;12.33;66.40;100550.38;5050842;28;20055;-43
2022/06/20 05:26:23;;;;;;;5.75;1.45;;;;;;;12.37;67.38;100558.16;5042253;28;20139;-49
2022/06/20 05:28:53;;;;;;;3.72;0.98;;;;;;;12.41;66.74;100557.28;5032779;28;20566;-42
2022/06/20 05:31:43;;;;;;;6.85;1.60;;;;;;;12.42;66.46;100557.28;5031502;28;20056;-44
2022/06/20 05:34:38;;;;;;;4.88;1.00;;;;;;;12.43;66.67;100555.56;5032575;28;20048;-43
2022/06/20 05:39:51;;;;;;;3.50;2.05;;;;;;;12.52;67.00;100555.53;5045749;27;20886;-46
2022/06/20 05:42:19;;;;;;;2.38;1.15;;;;;;;12.58;66.02;100555.53;5023159;28;20049;-46
2022/06/20 05:44:46;;;;;;;3.38;2.28;;;;;;;12.64;66.65;100561.56;5023965;28;20107;-46
2022/06/20 05:47:22;;;;;;;4.05;0.90;;;;;;;12.70;66.78;100558.94;5015576;28;20045;-43
2022/06/20 05:49:56;;;;;;;5.15;1.05;;;;;;;12.76;66.86;100561.50;5020892;28;20046;-44
2022/06/20 05:52:27;;;;;;;6.10;1.80;;;;;;;12.79;66.09;100558.91;5020083;28;20060;-45
2022/06/20 05:55:00;;;;;;;2.63;0.82;;;;;;;12.83;66.80;100560.63;5021859;28;20058;-50
2022/06/20 05:57:29;;;;;;;4.60;1.77;;;;;;;12.92;66.25;100564.06;5023278;28;20218;-43
2022/06/20 06:00:00;;;;;;;5.00;1.10;;;;;;;13.04;66.00;100557.94;5018141;28;20049;-45
2022/06/20 06:10:51;;;;;;;2.60;1.05;;;;;;;13.34;65.50;100572.50;5037655;27;20409;-45
2022/06/20 06:19:27;;;;;;;3.72;1.33;;;;;;;13.80;65.02;100570.50;5036041;28;20401;-47
2022/06/20 06:21:58;;;;;;;6.50;0.75;;;;;;;13.93;65.08;100576.50;4990530;28;20104;-44
2022/06/20 06:24:34;;;;;;;4.40;1.45;;;;;;;14.06;64.10;100577.25;4978320;28;20058;-48
2022/06/20 06:27:04;;;;;;;3.70;1.27;;;;;;;14.17;64.60;100589.28;5005834;28;20446;-47
2022/06/20 06:29:41;;;;;;;4.50;1.63;;;;;;;14.25;63.26;100592.69;4994213;28;20101;-46
2022/06/20 06:32:16;;;;;;;4.65;1.00;;;;;;;14.38;63.56;100594.31;4986045;28;20499;-47
2022/06/20 06:37:47;;;;;;;5.43;1.65;;;;;;;14.63;62.22;100594.06;5047437;28;20412;-44
2022/06/20 06:40:32;;;;;;;3.17;1.88;;;;;;;14.75;61.82;100600.00;5044533;28;20049;-44
2022/06/20 06:43:01;;;;;;;5.78;2.90;;;;;;;14.93;61.86;100605.94;5037864;28;20543;-47
2022/06/20 06:45:33;;;;;;;6.28;1.77;;;;;;;15.09;61.47;100607.47;5037602;28;20615;-46
2022/06/20 06:48:08;;;;;;;4.82;1.92;;;;;;;15.34;61.42;100612.38;5036091;28;20045;-49
2022/06/20 06:50:45;;;;;;;5.78;2.58;;;;;;;15.53;60.71;100617.31;5035758;28;20107;-46
2022/06/20 06:59:10;;;;;;;3.67;0.82;;;;;;;16.06;58.47;100617.44;5009234;28;20419;-50
2022/06/20 07:01:43;;;;;;;2.25;1.15;;;;;;;16.23;58.26;100623.25;4997993;28;20053;-52
2022/06/20 07:06:58;;;;;;;3.53;2.28;;;;;;;16.27;57.27;100625.78;5023437;27;20418;-46
2022/06/20 07:12:17;;;;;;;3.70;0.73;;;;;;;16.19;56.51;100631.13;5056952;27;20391;-44
2022/06/20 07:14:52;;;;;;;3.47;0.73;;;;;;;16.25;57.09;100631.94;5007671;28;20068;-47
2022/06/20 07:19:58;;;;;;;2.80;0.93;;;;;;;16.29;56.12;100638.84;5023149;28;20693;-47
2022/06/20 07:22:32;;;;;;;3.67;1.15;;;;;;;16.36;56.54;100644.81;5028064;28;20041;-49
2022/06/20 07:25:01;;;;;;;3.28;1.00;;;;;;;16.50;56.44;100636.72;5035339;28;20042;-47
2022/06/20 07:27:36;;;;;;;4.57;1.20;;;;;;;16.75;56.30;100638.91;5036797;28;20053;-48
2022/06/20 07:30:12;;;;;;;3.92;1.23;;;;;;;16.75;55.35;100646.75;5034608;28;20052;-46
2022/06/20 07:35:23;;;;;;;4.22;0.95;;;;;;;16.56;55.04;100647.09;5015786;27;20489;-46
2022/06/20 07:40:38;;;;;;;2.33;1.25;;;;;;;16.55;55.21;100650.59;5064358;27;20389;-45
2022/06/20 07:43:13;;;;;;;3.92;1.10;;;;;;;16.69;55.37;100652.97;5030836;28;20046;-48
2022/06/20 07:45:43;;;;;;;4.00;1.52;;;;;;;16.76;54.78;100653.69;5037548;28;20099;-47
2022/06/20 07:48:16;;;;;;;4.03;2.08;;;;;;;16.79;54.65;100664.13;5027153;28;20362;-46
2022/06/20 07:50:48;;;;;;;3.42;1.98;;;;;;;16.85;55.07;100663.97;5024677;28;20375;-44
2022/06/20 07:55:59;;;;;;;4.68;2.28;;;;;;;16.85;54.44;100653.50;5011035;28;20411;-46
2022/06/20 07:58:30;;;;;;;3.15;1.67;;;;;;;16.81;54.33;100659.69;4999502;28;20054;-48
2022/06/20 08:01:00;;;;;;;4.15;2.00;;;;;;;16.81;53.92;100662.31;5014831;28;20042;-52
2022/06/20 08:03:39;;;;;;;4.70;2.28;;;;;;;16.78;54.84;100662.38;5001257;28;20054;-45
2022/06/20 08:06:31;;;;;;;3.60;2.25;;;;;;;16.73;54.68;100653.75;5018519;28;20054;-46
2022/06/20 08:09:06;;;;;;;3.22;2.35;;;;;;;16.75;54.69;100654.59;5000521;28;20050;-50
2022/06/20 08:11:59;;;;;;;7.90;1.95;;;;;;;16.67;53.58;100662.56;5016729;28;20041;-47
2022/06/20 08:15:00;;;;;;;4.90;1.80;;;;;;;16.69;53.79;100655.56;4997710;28;20054;-44
2022/06/20 08:17:29;;;;;;;3.67;1.48;;;;;;;16.91;54.62;100661.25;5012790;28;20426;-46
2022/06/20 08:19:58;;;;;;;4.47;2.15;;;;;;;17.07;53.98;100655.75;4997118;28;20140;-43
2022/06/20 08:22:43;;;;;;;3.80;2.40;;;;;;;17.18;53.27;100661.63;5000513;28;20049;-46
2022/06/20 08:25:15;;;;;;;;;;;;;;;17.17;53.33;100659.91;5000405;28;20047;-46
2022/06/20 08:27:45;;;;;;;4.78;2.22;;;;;;;17.23;52.78;100663.28;4994954;28;19930;-47
2022/06/20 08:30:24;;;;;;;4.32;2.25;;;;;;;17.21;52.34;100666.81;4998359;28;20112;-47
2022/06/20 08:33:30;;;;;;;3.22;2.83;;;;;;;17.14;52.89;100674.81;5004214;28;20054;-45
2022/06/20 08:41:50;;;;;;;3.35;1.45;;;;;;;17.19;52.85;100672.97;5025238;27;20409;-45
2022/06/20 08:49:59;;;;;;;4.75;1.30;;;;;;;17.50;53.08;100668.84;5032162;28;20413;-46
2022/06/20 08:52:56;;;;;;;3.28;1.52;;;;;;;17.65;52.57;100665.00;5002973;28;20070;-47
2022/06/20 15:01:42;;;;;;;4.28;1.38;;;;;;;25.02;37.74;100532.41;5067322;27;20404;-48
2022/06/20 15:04:32;;;;;;;3.70;1.35;;;;;;;24.90;36.92;100534.81;5038537;28;20060;-46
2022/06/20 15:07:27;;;;;;;4.45;1.48;;;;;;;24.86;37.43;100527.97;5043910;28;20067;-47
2022/06/20 15:10:08;;;;;;;4.40;1.60;;;;;;;24.96;36.80;100532.78;5036435;28;20141;-47
2022/06/20 15:12:58;;;;;;;3.97;2.60;;;;;;;24.95;37.74;100531.06;5045322;28;24772;-52
2022/06/20 15:15:45;;;;;;;4.60;1.35;;;;;;;24.86;37.87;100522.66;5051690;28;20094;-51
2022/06/20 15:26:25;;;;;;;4.68;2.70;;;;;;;25.24;37.38;100520.59;5054087;28;20410;-47
2022/06/20 15:29:14;;;;;;;6.40;1.23;;;;;;;25.02;38.72;100505.91;5007339;28;20465;-49
2022/06/20 15:31:48;;;;;;;;;;;;;;;24.93;38.55;100507.31;4997769;28;20046;-47
2022/06/20 15:34:37;;;;;;;2.42;1.15;;;;;;;25.07;38.27;100514.47;5030495;28;20388;-53
2022/06/20 15:37:23;;;;;;;3.47;1.50;;;;;;;25.11;37.23;100510.72;5004942;28;20049;-49
2022/06/20 15:42:45;;;;;;;7.45;1.80;;;;;;;25.24;38.86;100502.91;5046508;27;21083;-50
2022/06/20 15:45:35;;;;;;;6.53;1.27;;;;;;;25.27;38.34;100501.88;5013752;28;20426;-53
2022/06/20 15:54:11;;;;;;;4.20;2.75;;;;;;;25.21;38.07;100499.56;5067556;27;20393;-51
2022/06/20 16:13:21;;;;;;;5.78;2.80;;;;;;;25.10;38.09;100494.91;5014160;28;20411;-48
2022/06/20 16:15:50;;;;;;;3.40;2.35;;;;;;;24.94;37.89;100492.25;4996164;28;20845;-53
2022/06/20 16:18:45;;;;;;;4.03;2.35;;;;;;;24.69;38.39;100483.00;5005820;28;20777;-49
2022/06/20 16:21:17;;;;;;;3.42;2.30;;;;;;;24.63;37.97;100478.91;4996542;28;20061;-53
2022/06/20 16:29:18;;;;;;;3.50;1.33;;;;;;;24.64;38.55;100481.47;5003962;28;20399;-51
2022/06/20 16:34:47;;;;;;;3.63;1.65;;;;;;;24.61;38.61;100475.47;5019050;27;20403;-46
2022/06/20 16:37:22;;;;;;;5.05;1.60;;;;;;;24.65;38.74;100483.16;4984697;28;20050;-47
2022/06/20 16:39:52;;;;;;;4.00;1.35;;;;;;;24.62;38.74;100478.03;4982688;28;20086;-50
2022/06/20 16:42:47;;;;;;;5.18;1.50;;;;;;;24.49;38.30;100474.38;4984047;28;20046;-47
2022/06/20 16:45:50;;;;;;;2.70;1.35;;;;;;;24.44;38.41;100484.34;4992166;28;20407;-46
2022/06/20 16:51:23;;;;;;;4.20;2.65;;;;;;;24.46;38.27;100475.41;5114359;27;20890;-48
2022/06/20 16:56:34;;;;;;;3.90;1.23;;;;;;;24.32;38.00;100470.81;5116166;27;20905;-50
2022/06/20 17:07:33;;;;;;;5.43;2.03;;;;;;;24.31;37.85;100463.84;5033665;27;20402;-46
2022/06/20 17:20:57;;;;;;;5.53;2.08;;;;;;;24.22;38.15;100448.47;5039039;28;20941;-47
2022/06/20 17:29:09;;;;;;;3.42;1.38;;;;;;;24.06;38.30;100443.97;5046436;27;20413;-52
2022/06/20 17:43:00;;;;;;;3.67;2.92;;;;;;;23.40;40.32;100443.78;5042051;28;20405;-48
2022/06/20 17:51:06;;;;;;;4.20;1.35;;;;;;;23.59;39.34;100435.78;5036885;28;20913;-51
2022/06/20 17:56:25;;;;;;;3.65;1.42;;;;;;;23.45;39.05;100422.44;5018566;28;20914;-46
2022/06/20 17:59:17;;;;;;;5.88;1.52;;;;;;;23.30;40.47;100424.03;5019190;28;20046;-49
2022/06/20 18:04:30;;;;;;;3.47;2.50;;;;;;;23.26;39.69;100428.59;5020901;27;20404;-45
2022/06/20 18:07:02;;;;;;;5.53;2.60;;;;;;;23.17;39.75;100413.22;4989786;28;20041;-47
2022/06/20 18:09:56;;;;;;;3.30;2.10;;;;;;;23.04;40.01;100419.13;5014564;28;20437;-46
2022/06/20 18:12:33;;;;;;;4.32;3.40;;;;;;;23.05;40.64;100415.53;4999181;28;20050;-48
2022/06/20 18:15:05;;;;;;;4.95;2.85;;;;;;;22.95;40.32;100424.84;4997137;28;20038;-48
2022/06/20 18:17:38;;;;;;;5.25;2.88;;;;;;;22.79;40.21;100414.16;5002038;28;20173;-48
2022/06/20 18:20:11;;;;;;;5.20;2.80;;;;;;;22.65;41.06;100418.34;4982623;28;20077;-46
2022/06/20 18:22:44;;;;;;;5.70;3.10;;;;;;;22.48;41.29;100421.72;4993850;28;20053;-50
2022/06/20 18:28:08;;;;;;;5.32;1.48;;;;;;;22.04;42.17;100415.81;5036691;27;20413;-50
2022/06/20 18:30:54;;;;;;;5.45;1.27;;;;;;;21.91;42.00;100425.19;4998392;28;20042;-45
2022/06/20 18:33:26;;;;;;;4.45;1.63;;;;;;;21.88;42.02;100417.44;4995971;28;20062;-47
2022/06/20 18:35:55;;;;;;;6.93;1.60;;;;;;;21.79;42.87;100411.59;5030745;28;20038;-50
2022/06/20 18:38:25;;;;;;;3.15;1.63;;;;;;;21.77;42.36;100416.09;4997715;28;20461;-49
2022/06/20 18:43:51;;;;;;;2.63;1.52;;;;;;;21.53;42.88;100421.50;5012277;28;20410;-45
2022/06/20 18:46:23;;;;;;;3.70;1.63;;;;;;;21.52;43.03;100419.75;4986680;28;20038;-47
2022/06/20 18:49:30;;;;;;;6.40;2.05;;;;;;;21.32;42.88;100421.47;4989837;28;20051;-48
2022/06/20 19:23:54;;;;;;;3.85;1.73;;;;;;;20.13;45.94;100403.31;5064388;28;20391;-53
2022/06/20 19:42:14;;;;;;;4.43;1.30;;;;;;;19.57;46.83;100398.22;5053953;28;20397;-48
2022/06/20 19:44:45;;;;;;;5.28;1.70;;;;;;;19.51;46.92;100398.41;4963997;28;20050;-47
2022/06/20 20:05:58;;;;;;;5.15;2.25;;;;;;;19.50;48.46;100400.22;5048011;28;20408;-46
2022/06/20 20:08:29;;;;;;;4.30;2.70;;;;;;;19.05;48.86;100395.56;5034639;28;20056;-44
2022/06/20 20:11:00;;;;;;;5.53;2.58;;;;;;;18.90;48.56;100397.75;5032924;28;20057;-44
2022/06/20 20:13:34;;;;;;;4.00;2.17;;;;;;;18.79;48.13;100397.25;5050585;28;20498;-45
2022/06/20 20:18:45;;;;;;;3.60;1.50;;;;;;;18.62;48.53;100390.75;5050446;27;20397;-49
